createdAt,value
2019-04-21T00:00:21.022Z,1014.90
2019-04-21T00:01:20.202Z,1014.87
2019-04-21T00:02:26.385Z,1014.84
2019-04-21T00:03:26.042Z,1014.84
2019-04-21T00:04:30.063Z,1014.82
2019-04-21T00:05:38.559Z,1014.83
2019-04-21T00:06:41.072Z,1014.85
2019-04-21T00:07:37.839Z,1014.77
2019-04-21T00:08:56.302Z,1014.82
2019-04-21T00:09:39.796Z,1014.76
2019-04-21T00:10:40.626Z,1014.75
2019-04-21T00:11:40.874Z,1014.74
2019-04-21T00:12:38.871Z,1014.73
2019-04-21T00:13:33.202Z,1014.73
2019-04-21T00:14:31.570Z,1014.70
2019-04-21T00:15:28.704Z,1014.71
2019-04-21T00:16:29.096Z,1014.67
2019-04-21T00:17:21.669Z,1014.67
2019-04-21T00:18:19.082Z,1014.64
2019-04-21T00:19:24.273Z,1014.68
2019-04-21T00:20:27.433Z,1014.68
2019-04-21T00:21:26.661Z,1014.64
2019-04-21T00:22:30.166Z,1014.60
2019-04-21T00:23:33.474Z,1014.61
2019-04-21T00:24:29.028Z,1014.62
2019-04-21T00:25:32.189Z,1014.60
2019-04-21T00:26:42.272Z,1014.61
2019-04-21T00:27:36.798Z,1014.63
2019-04-21T00:28:42.790Z,1014.61
2019-04-21T00:29:38.618Z,1014.59
2019-04-21T00:30:40.079Z,1014.60
2019-04-21T00:31:34.143Z,1014.54
2019-04-21T00:32:29.285Z,1014.52
2019-04-21T00:33:24.400Z,1014.52
2019-04-21T00:34:17.754Z,1014.52
2019-04-21T00:35:22.499Z,1014.47
2019-04-21T00:36:25.241Z,1014.46
2019-04-21T00:37:26.714Z,1014.47
2019-04-21T00:38:40.357Z,1014.50
2019-04-21T00:39:43.347Z,1014.47
2019-04-21T00:40:41.697Z,1014.42
2019-04-21T00:41:39.919Z,1014.41
2019-04-21T00:42:34.537Z,1014.39
2019-04-21T00:43:35.377Z,1014.40
2019-04-21T00:44:27.435Z,1014.40
2019-04-21T00:45:31.091Z,1014.40
2019-04-21T00:46:32.356Z,1014.37
2019-04-21T00:47:34.158Z,1014.35
2019-04-21T00:48:45.055Z,1014.34
2019-04-21T00:49:32.009Z,1014.30
2019-04-21T00:50:42.663Z,1014.28
2019-04-21T00:51:47.050Z,1014.28
2019-04-21T00:53:00.461Z,1014.24
2019-04-21T00:53:45.124Z,1014.27
2019-04-21T00:54:43.466Z,1014.26
2019-04-21T00:55:41.039Z,1014.22
2019-04-21T00:56:41.268Z,1014.25
2019-04-21T00:57:41.331Z,1014.20
2019-04-21T00:58:39.594Z,1014.21
2019-04-21T00:59:40.085Z,1014.21
2019-04-21T01:00:40.836Z,1014.18
2019-04-21T01:01:37.878Z,1014.18
2019-04-21T01:02:47.153Z,1014.15
2019-04-21T01:03:37.296Z,1014.15
2019-04-21T01:04:43.332Z,1014.13
2019-04-21T01:05:42.723Z,1014.09
2019-04-21T01:06:38.267Z,1014.10
2019-04-21T01:07:37.143Z,1014.07
2019-04-21T01:08:39.761Z,1014.05
2019-04-21T01:09:31.746Z,1014.01
2019-04-21T01:10:28.728Z,1014.03
2019-04-21T01:11:42.555Z,1014.02
2019-04-21T01:12:37.985Z,1014.03
2019-04-21T01:13:41.567Z,1013.98
2019-04-21T01:14:46.928Z,1013.98
2019-04-21T01:16:39.332Z,1013.97
2019-04-21T01:17:35.714Z,1013.99
2019-04-21T01:18:39.357Z,1013.98
2019-04-21T01:19:36.242Z,1013.92
2019-04-21T01:20:17.560Z,1013.95
2019-04-21T01:21:14.906Z,1013.89
2019-04-21T01:22:14.845Z,1013.92
2019-04-21T01:23:14.829Z,1013.91
2019-04-21T01:24:21.663Z,1013.90
2019-04-21T01:25:22.962Z,1013.85
2019-04-21T01:26:28.832Z,1013.87
2019-04-21T01:27:27.486Z,1013.87
2019-04-21T01:28:32.821Z,1013.83
2019-04-21T01:29:37.216Z,1013.84
2019-04-21T01:30:39.008Z,1013.84
2019-04-21T01:31:30.522Z,1013.82
2019-04-21T01:32:35.615Z,1013.82
2019-04-21T01:33:39.669Z,1013.74
2019-04-21T01:34:33.070Z,1013.76
2019-04-21T01:35:36.675Z,1013.76
2019-04-21T01:36:33.402Z,1013.69
2019-04-21T01:37:40.867Z,1013.70
2019-04-21T01:38:39.838Z,1013.70
2019-04-21T01:39:42.669Z,1013.68
2019-04-21T01:40:36.163Z,1013.61
2019-04-21T01:41:43.193Z,1013.62
2019-04-21T01:42:31.453Z,1013.60
2019-04-21T01:43:35.778Z,1013.55
2019-04-21T01:44:36.205Z,1013.57
2019-04-21T01:45:35.608Z,1013.55
2019-04-21T01:46:30.994Z,1013.55
2019-04-21T01:47:31.514Z,1013.56
2019-04-21T01:48:31.934Z,1013.53
2019-04-21T01:49:26.712Z,1013.54
2019-04-21T01:50:31.695Z,1013.56
2019-04-21T01:51:32.145Z,1013.54
2019-04-21T01:52:38.439Z,1013.54
2019-04-21T01:53:38.200Z,1013.53
2019-04-21T01:54:35.517Z,1013.53
2019-04-21T01:55:35.606Z,1013.53
2019-04-21T01:56:34.601Z,1013.50
2019-04-21T01:57:33.291Z,1013.53
2019-04-21T01:58:25.478Z,1013.50
2019-04-21T02:00:30.855Z,1013.52
2019-04-21T02:01:33.521Z,1013.57
2019-04-21T02:02:37.880Z,1013.55
2019-04-21T02:03:48.706Z,1013.53
2019-04-21T02:04:36.364Z,1013.56
2019-04-21T02:05:37.528Z,1013.58
2019-04-21T02:06:33.081Z,1013.57
2019-04-21T02:07:32.640Z,1013.58
2019-04-21T02:08:34.537Z,1013.59
2019-04-21T02:09:30.922Z,1013.59
2019-04-21T02:10:39.779Z,1013.59
2019-04-21T02:11:35.798Z,1013.61
2019-04-21T02:12:34.604Z,1013.56
2019-04-21T02:13:35.508Z,1013.56
2019-04-21T02:14:39.079Z,1013.56
2019-04-21T02:15:36.123Z,1013.58
2019-04-21T02:16:34.065Z,1013.55
2019-04-21T02:17:29.269Z,1013.57
2019-04-21T02:18:33.682Z,1013.56
2019-04-21T02:19:28.466Z,1013.55
2019-04-21T02:20:21.575Z,1013.50
2019-04-21T02:21:27.660Z,1013.49
2019-04-21T02:22:46.348Z,1013.48
2019-04-21T02:23:44.013Z,1013.46
2019-04-21T02:24:58.012Z,1013.46
2019-04-21T02:25:36.882Z,1013.45
2019-04-21T02:26:36.130Z,1013.47
2019-04-21T02:27:29.845Z,1013.48
2019-04-21T02:29:34.051Z,1013.45
2019-04-21T02:30:50.370Z,1013.46
2019-04-21T02:31:46.245Z,1013.41
2019-04-21T02:32:43.833Z,1013.40
2019-04-21T02:33:45.835Z,1013.43
2019-04-21T02:34:52.890Z,1013.42
2019-04-21T02:37:46.738Z,1013.44
2019-04-21T02:38:52.334Z,1013.39
2019-04-21T02:40:51.210Z,1013.37
2019-04-21T02:41:55.779Z,1013.38
2019-04-21T02:42:46.347Z,1013.36
2019-04-21T02:43:50.110Z,1013.32
2019-04-21T02:44:49.432Z,1013.31
2019-04-21T02:45:40.970Z,1013.32
2019-04-21T02:46:42.526Z,1013.26
2019-04-21T02:47:50.681Z,1013.24
2019-04-21T02:48:43.411Z,1013.24
2019-04-21T02:49:57.285Z,1013.26
2019-04-21T02:50:39.852Z,1013.27
2019-04-21T02:51:45.808Z,1013.23
2019-04-21T02:55:38.748Z,1013.17
2019-04-21T02:57:43.485Z,1013.17
2019-04-21T02:58:44.421Z,1013.13
2019-04-21T02:59:42.314Z,1013.16
2019-04-21T03:00:44.938Z,1013.14
2019-04-21T03:01:55.890Z,1013.13
2019-04-21T03:03:54.823Z,1013.13
2019-04-21T03:04:42.657Z,1013.09
2019-04-21T03:06:39.716Z,1013.05
2019-04-21T03:07:46.417Z,1013.07
2019-04-21T03:08:50.067Z,1013.08
2019-04-21T03:10:43.415Z,1013.05
2019-04-21T03:11:35.929Z,1013.02
2019-04-21T03:12:38.625Z,1013.06
2019-04-21T03:13:42.975Z,1013.04
2019-04-21T03:14:50.219Z,1013.00
2019-04-21T03:15:47.414Z,1013.02
2019-04-21T03:16:31.198Z,1013.00
2019-04-21T03:17:43.907Z,1012.97
2019-04-21T03:18:43.756Z,1012.92
2019-04-21T03:20:42.137Z,1012.90
2019-04-21T03:21:45.648Z,1012.86
2019-04-21T03:23:46.032Z,1012.90
2019-04-21T03:25:00.869Z,1012.83
2019-04-21T03:25:52.093Z,1012.82
2019-04-21T03:28:39.663Z,1012.78
2019-04-21T03:31:11.775Z,1012.74
2019-04-21T03:32:05.643Z,1012.75
2019-04-21T03:40:32.411Z,1012.75
2019-04-21T03:41:48.775Z,1012.76
2019-04-21T03:43:43.810Z,1012.70
2019-04-21T03:44:37.343Z,1012.70
2019-04-21T03:45:38.642Z,1012.70
2019-04-21T03:47:34.548Z,1012.70
2019-04-21T03:48:55.612Z,1012.71
2019-04-21T03:50:33.538Z,1012.73
2019-04-21T03:51:40.221Z,1012.72
2019-04-21T03:54:41.498Z,1012.75
2019-04-21T03:58:04.603Z,1012.72
2019-04-21T03:58:46.842Z,1012.73
2019-04-21T03:59:40.645Z,1012.70
2019-04-21T04:01:36.670Z,1012.76
2019-04-21T04:02:45.587Z,1012.76
2019-04-21T04:04:00.723Z,1012.74
2019-04-21T04:04:34.140Z,1012.72
2019-04-21T04:05:49.411Z,1012.72
2019-04-21T04:07:44.746Z,1012.68
2019-04-21T04:08:52.580Z,1012.70
2019-04-21T04:09:48.302Z,1012.70
2019-04-21T04:10:46.371Z,1012.72
2019-04-21T04:11:44.108Z,1012.69
2019-04-21T04:12:36.570Z,1012.72
2019-04-21T04:13:49.725Z,1012.71
2019-04-21T04:14:40.502Z,1012.71
2019-04-21T04:16:38.860Z,1012.66
2019-04-21T04:17:32.874Z,1012.65
2019-04-21T04:18:53.255Z,1012.63
2019-04-21T04:20:36.916Z,1012.64
2019-04-21T04:21:37.202Z,1012.67
2019-04-21T04:22:37.830Z,1012.63
2019-04-21T04:24:44.707Z,1012.62
2019-04-21T04:25:40.656Z,1012.59
2019-04-21T04:27:51.277Z,1012.57
2019-04-21T04:29:32.125Z,1012.59
2019-04-21T04:30:39.541Z,1012.62
2019-04-21T04:31:43.194Z,1012.58
2019-04-21T04:34:41.245Z,1012.57
2019-04-21T04:35:45.782Z,1012.62
2019-04-21T04:37:36.695Z,1012.57
2019-04-21T04:38:41.702Z,1012.57
2019-04-21T04:40:34.667Z,1012.55
2019-04-21T04:42:39.229Z,1012.56
2019-04-21T04:43:59.131Z,1012.57
2019-04-21T04:44:46.316Z,1012.56
2019-04-21T04:46:48.879Z,1012.58
2019-04-21T04:47:49.961Z,1012.59
2019-04-21T04:48:38.498Z,1012.59
2019-04-21T04:50:45.427Z,1012.59
2019-04-21T04:51:47.606Z,1012.60
2019-04-21T04:52:41.959Z,1012.60
2019-04-21T04:53:40.421Z,1012.59
2019-04-21T04:55:33.738Z,1012.58
2019-04-21T04:56:54.343Z,1012.60
2019-04-21T04:59:43.025Z,1012.61
2019-04-21T05:03:47.420Z,1012.58
2019-04-21T05:05:34.631Z,1012.57
2019-04-21T05:06:43.547Z,1012.61
2019-04-21T05:08:01.405Z,1012.57
2019-04-21T05:08:49.282Z,1012.59
2019-04-21T05:09:37.085Z,1012.57
2019-04-21T05:10:47.690Z,1012.56
2019-04-21T05:12:30.378Z,1012.56
2019-04-21T05:13:34.440Z,1012.57
2019-04-21T05:14:30.345Z,1012.54
2019-04-21T05:15:32.202Z,1012.53
2019-04-21T05:16:43.147Z,1012.53
2019-04-21T05:18:34.526Z,1012.50
2019-04-21T05:20:32.230Z,1012.52
2019-04-21T05:22:33.461Z,1012.49
2019-04-21T05:23:29.224Z,1012.48
2019-04-21T05:24:23.089Z,1012.49
2019-04-21T05:25:20.782Z,1012.49
2019-04-21T05:26:14.320Z,1012.46
2019-04-21T05:27:18.438Z,1012.49
2019-04-21T05:28:15.245Z,1012.41
2019-04-21T05:29:15.871Z,1012.41
2019-04-21T05:30:29.138Z,1012.42
2019-04-21T05:31:25.411Z,1012.41
2019-04-21T05:32:26.445Z,1012.42
2019-04-21T05:33:29.308Z,1012.39
2019-04-21T05:34:22.102Z,1012.45
2019-04-21T05:35:22.831Z,1012.47
2019-04-21T05:36:23.996Z,1012.45
2019-04-21T05:37:25.754Z,1012.45
2019-04-21T05:38:21.682Z,1012.43
2019-04-21T05:39:21.608Z,1012.44
2019-04-21T05:40:20.130Z,1012.42
2019-04-21T05:41:13.899Z,1012.41
2019-04-21T05:42:10.447Z,1012.40
2019-04-21T05:43:25.876Z,1012.43
2019-04-21T05:44:30.392Z,1012.42
2019-04-21T05:45:26.877Z,1012.44
2019-04-21T05:46:25.442Z,1012.44
2019-04-21T05:47:26.309Z,1012.46
2019-04-21T05:49:25.315Z,1012.49
2019-04-21T05:50:20.508Z,1012.48
2019-04-21T05:51:20.493Z,1012.47
2019-04-21T05:52:21.543Z,1012.47
2019-04-21T05:53:31.367Z,1012.49
2019-04-21T05:54:29.845Z,1012.46
2019-04-21T05:55:24.445Z,1012.46
2019-04-21T05:56:27.249Z,1012.50
2019-04-21T05:57:22.240Z,1012.49
2019-04-21T05:58:21.394Z,1012.48
2019-04-21T05:59:22.062Z,1012.47
2019-04-21T06:00:23.059Z,1012.43
2019-04-21T06:01:28.513Z,1012.44
2019-04-21T06:02:22.258Z,1012.41
2019-04-21T06:03:23.146Z,1012.41
2019-04-21T06:04:41.612Z,1012.40
2019-04-21T06:05:40.750Z,1012.38
2019-04-21T06:06:27.496Z,1012.39
2019-04-21T06:07:23.093Z,1012.39
2019-04-21T06:08:23.503Z,1012.36
2019-04-21T06:09:29.710Z,1012.39
2019-04-21T06:10:31.529Z,1012.37
2019-04-21T06:11:28.859Z,1012.38
2019-04-21T06:12:21.091Z,1012.39
2019-04-21T06:13:26.507Z,1012.39
2019-04-21T06:14:25.139Z,1012.32
2019-04-21T06:15:21.386Z,1012.35
2019-04-21T06:16:44.133Z,1012.34
2019-04-21T06:17:32.393Z,1012.31
2019-04-21T06:18:27.054Z,1012.34
2019-04-21T06:19:31.433Z,1012.33
2019-04-21T06:20:20.645Z,1012.31
2019-04-21T06:21:22.228Z,1012.34
2019-04-21T06:22:18.840Z,1012.33
2019-04-21T06:23:25.114Z,1012.28
2019-04-21T06:24:25.144Z,1012.28
2019-04-21T06:28:28.414Z,1012.27
2019-04-21T06:29:23.657Z,1012.26
2019-04-21T06:30:17.708Z,1012.30
2019-04-21T06:31:33.950Z,1012.28
2019-04-21T06:33:27.870Z,1012.24
2019-04-21T06:34:27.852Z,1012.27
2019-04-21T06:35:28.159Z,1012.26
2019-04-21T06:37:40.204Z,1012.24
2019-04-21T06:38:28.243Z,1012.29
2019-04-21T06:39:25.919Z,1012.30
2019-04-21T06:41:29.678Z,1012.26
2019-04-21T06:42:21.869Z,1012.30
2019-04-21T06:43:42.885Z,1012.28
2019-04-21T06:44:39.855Z,1012.28
2019-04-21T06:45:31.421Z,1012.27
2019-04-21T06:46:26.431Z,1012.29
2019-04-21T06:48:30.520Z,1012.30
2019-04-21T06:49:16.169Z,1012.30
2019-04-21T06:50:22.943Z,1012.30
2019-04-21T06:51:22.451Z,1012.30
2019-04-21T06:52:43.545Z,1012.29
2019-04-21T06:53:36.004Z,1012.24
2019-04-21T06:54:22.028Z,1012.25
2019-04-21T06:55:20.314Z,1012.23
2019-04-21T06:56:21.804Z,1012.20
2019-04-21T06:57:21.852Z,1012.19
2019-04-21T06:58:18.157Z,1012.19
2019-04-21T06:59:13.482Z,1012.20
2019-04-21T07:00:23.072Z,1012.22
2019-04-21T07:01:26.572Z,1012.25
2019-04-21T07:02:40.920Z,1012.25
2019-04-21T07:03:32.405Z,1012.25
2019-04-21T07:05:22.824Z,1012.26
2019-04-21T07:06:23.852Z,1012.28
2019-04-21T07:07:17.232Z,1012.29
2019-04-21T07:08:31.335Z,1012.28
2019-04-21T07:09:25.459Z,1012.29
2019-04-21T07:10:22.758Z,1012.29
2019-04-21T07:11:21.596Z,1012.27
2019-04-21T07:12:20.251Z,1012.26
2019-04-21T07:13:15.303Z,1012.26
2019-04-21T07:15:19.854Z,1012.24
2019-04-21T07:16:19.165Z,1012.25
2019-04-21T07:17:24.611Z,1012.24
2019-04-21T07:18:19.192Z,1012.23
2019-04-21T07:20:17.133Z,1012.21
2019-04-21T07:21:23.443Z,1012.21
2019-04-21T07:22:22.937Z,1012.19
2019-04-21T07:23:16.249Z,1012.18
2019-04-21T07:25:24.814Z,1012.18
2019-04-21T07:26:22.254Z,1012.17
2019-04-21T07:27:22.273Z,1012.16
2019-04-21T07:28:22.101Z,1012.16
2019-04-21T07:29:20.434Z,1012.17
2019-04-21T07:30:20.902Z,1012.22
2019-04-21T07:31:17.791Z,1012.21
2019-04-21T07:32:18.368Z,1012.18
2019-04-21T07:33:47.726Z,1012.18
2019-04-21T07:34:21.300Z,1012.16
2019-04-21T07:35:31.706Z,1012.19
2019-04-21T07:36:21.391Z,1012.18
2019-04-21T07:37:20.028Z,1012.17
2019-04-21T07:38:16.561Z,1012.19
2019-04-21T07:39:14.891Z,1012.18
2019-04-21T07:40:17.815Z,1012.14
2019-04-21T07:41:09.210Z,1012.15
2019-04-21T07:42:13.732Z,1012.17
2019-04-21T07:43:10.955Z,1012.12
2019-04-21T07:44:10.346Z,1012.15
2019-04-21T07:45:13.015Z,1012.10
2019-04-21T07:46:10.735Z,1012.09
2019-04-21T07:47:17.109Z,1012.09
2019-04-21T07:48:14.004Z,1012.08
2019-04-21T07:49:14.014Z,1012.07
2019-04-21T07:50:14.616Z,1012.09
2019-04-21T07:51:20.858Z,1012.09
2019-04-21T07:52:20.776Z,1012.05
2019-04-21T07:53:22.784Z,1012.06
2019-04-21T07:54:31.241Z,1012.01
2019-04-21T07:56:00.792Z,1012.03
2019-04-21T07:57:08.311Z,1012.04
2019-04-21T07:58:22.627Z,1012.00
2019-04-21T07:59:23.897Z,1012.03
2019-04-21T08:01:18.413Z,1012.02
2019-04-21T08:02:16.972Z,1012.02
2019-04-21T08:03:15.935Z,1012.01
2019-04-21T08:04:24.452Z,1011.99
2019-04-21T08:06:22.773Z,1011.97
2019-04-21T08:07:21.793Z,1012.00
2019-04-21T08:08:12.089Z,1012.00
2019-04-21T08:09:12.232Z,1011.95
2019-04-21T08:10:14.447Z,1011.98
2019-04-21T08:11:12.332Z,1011.98
2019-04-21T08:12:08.095Z,1011.97
2019-04-21T08:13:22.099Z,1011.90
2019-04-21T08:14:17.693Z,1011.94
2019-04-21T08:15:23.996Z,1011.92
2019-04-21T08:16:21.157Z,1011.88
2019-04-21T08:17:16.645Z,1011.89
2019-04-21T08:18:11.804Z,1011.86
2019-04-21T08:19:13.047Z,1011.89
2019-04-21T08:20:15.674Z,1011.87
2019-04-21T08:21:11.018Z,1011.88
2019-04-21T08:22:18.639Z,1011.87
2019-04-21T08:23:14.548Z,1011.85
2019-04-21T08:24:14.561Z,1011.86
2019-04-21T08:25:16.531Z,1011.85
2019-04-21T08:26:32.438Z,1011.83
2019-04-21T08:27:18.866Z,1011.88
2019-04-21T08:28:15.875Z,1011.84
2019-04-21T08:29:20.684Z,1011.86
2019-04-21T08:30:11.579Z,1011.86
2019-04-21T08:31:14.317Z,1011.89
2019-04-21T08:32:19.959Z,1011.88
2019-04-21T08:33:27.284Z,1011.89
2019-04-21T08:34:17.790Z,1011.91
2019-04-21T08:35:34.665Z,1011.87
2019-04-21T08:37:12.376Z,1011.92
2019-04-21T08:38:13.825Z,1011.87
2019-04-21T08:39:13.226Z,1011.88
2019-04-21T08:40:21.352Z,1011.83
2019-04-21T08:41:17.060Z,1011.83
2019-04-21T08:42:10.939Z,1011.86
2019-04-21T08:43:23.820Z,1011.87
2019-04-21T08:44:10.662Z,1011.81
2019-04-21T08:45:15.211Z,1011.81
2019-04-21T08:46:13.716Z,1011.79
2019-04-21T08:47:15.481Z,1011.80
2019-04-21T08:48:10.270Z,1011.78
2019-04-21T08:49:15.816Z,1011.80
2019-04-21T08:50:15.183Z,1011.76
2019-04-21T08:52:21.607Z,1011.79
2019-04-21T08:53:22.562Z,1011.77
2019-04-21T08:54:17.109Z,1011.77
2019-04-21T08:55:12.427Z,1011.73
2019-04-21T08:56:19.630Z,1011.72
2019-04-21T08:57:14.574Z,1011.71
2019-04-21T08:58:25.296Z,1011.72
2019-04-21T08:59:21.884Z,1011.74
2019-04-21T09:00:16.808Z,1011.73
2019-04-21T09:01:17.675Z,1011.71
2019-04-21T09:03:14.653Z,1011.66
2019-04-21T09:04:13.195Z,1011.67
2019-04-21T09:05:11.137Z,1011.63
2019-04-21T09:06:16.964Z,1011.64
2019-04-21T09:07:07.393Z,1011.66
2019-04-21T09:08:13.746Z,1011.65
2019-04-21T09:09:10.906Z,1011.59
2019-04-21T09:10:11.015Z,1011.60
2019-04-21T09:11:07.023Z,1011.55
2019-04-21T09:12:10.907Z,1011.51
2019-04-21T09:13:10.091Z,1011.53
2019-04-21T09:14:13.075Z,1011.51
2019-04-21T09:15:08.395Z,1011.52
2019-04-21T09:16:09.784Z,1011.54
2019-04-21T09:17:07.843Z,1011.54
2019-04-21T09:18:03.059Z,1011.51
2019-04-21T09:19:01.986Z,1011.50
2019-04-21T09:20:50.861Z,1011.46
2019-04-21T09:21:14.786Z,1011.42
2019-04-21T09:22:05.815Z,1011.47
2019-04-21T09:23:06.493Z,1011.45
2019-04-21T09:24:14.813Z,1011.45
2019-04-21T09:25:16.296Z,1011.44
2019-04-21T09:26:05.451Z,1011.42
2019-04-21T09:27:11.335Z,1011.39
2019-04-21T09:28:08.079Z,1011.41
2019-04-21T09:29:00.704Z,1011.41
2019-04-21T09:29:55.990Z,1011.38
2019-04-21T09:30:56.901Z,1011.36
2019-04-21T09:31:54.497Z,1011.36
2019-04-21T09:32:53.445Z,1011.34
2019-04-21T09:33:53.944Z,1011.32
2019-04-21T09:34:51.320Z,1011.34
2019-04-21T09:35:58.791Z,1011.33
2019-04-21T09:36:58.707Z,1011.32
2019-04-21T09:37:57.282Z,1011.32
2019-04-21T09:38:59.349Z,1011.32
2019-04-21T09:39:53.763Z,1011.27
2019-04-21T09:40:54.014Z,1011.24
2019-04-21T09:41:54.496Z,1011.25
2019-04-21T09:42:55.979Z,1011.23
2019-04-21T09:43:53.646Z,1011.19
2019-04-21T09:44:53.783Z,1011.20
2019-04-21T09:45:50.075Z,1011.20
2019-04-21T09:46:54.884Z,1011.23
2019-04-21T09:47:59.059Z,1011.20
2019-04-21T09:48:58.257Z,1011.16
2019-04-21T09:49:49.875Z,1011.15
2019-04-21T09:50:50.419Z,1011.17
2019-04-21T09:51:50.542Z,1011.16
2019-04-21T09:52:55.379Z,1011.07
2019-04-21T09:53:58.313Z,1011.12
2019-04-21T09:55:01.176Z,1011.11
2019-04-21T09:55:55.891Z,1011.10
2019-04-21T09:56:54.932Z,1011.10
2019-04-21T09:57:55.090Z,1011.05
2019-04-21T09:58:53.246Z,1011.05
2019-04-21T09:59:59.919Z,1011.02
2019-04-21T10:01:01.426Z,1011.02
2019-04-21T10:02:01.598Z,1011.01
2019-04-21T10:02:56.763Z,1011.00
2019-04-21T10:03:53.722Z,1010.96
2019-04-21T10:04:50.190Z,1010.98
2019-04-21T10:05:49.743Z,1010.97
2019-04-21T10:06:49.729Z,1010.97
2019-04-21T10:07:49.062Z,1010.93
2019-04-21T10:08:57.476Z,1010.91
2019-04-21T10:09:50.014Z,1010.90
2019-04-21T10:10:49.109Z,1010.92
2019-04-21T10:11:48.865Z,1010.85
2019-04-21T10:12:49.842Z,1010.86
2019-04-21T10:13:48.849Z,1010.82
2019-04-21T10:14:49.423Z,1010.80
2019-04-21T10:15:48.707Z,1010.77
2019-04-21T10:16:49.546Z,1010.76
2019-04-21T10:17:49.623Z,1010.73
2019-04-21T10:18:48.554Z,1010.70
2019-04-21T10:19:48.596Z,1010.68
2019-04-21T10:20:49.190Z,1010.70
2019-04-21T10:21:48.430Z,1010.66
2019-04-21T10:22:48.985Z,1010.68
2019-04-21T10:23:48.320Z,1010.66
2019-04-21T10:24:48.847Z,1010.68
2019-04-21T10:25:48.466Z,1010.69
2019-04-21T10:26:49.251Z,1010.72
2019-04-21T10:27:49.400Z,1010.61
2019-04-21T10:28:49.026Z,1010.61
2019-04-21T10:29:49.129Z,1010.56
2019-04-21T10:30:49.007Z,1010.57
2019-04-21T10:31:48.163Z,1010.59
2019-04-21T10:32:48.373Z,1010.56
2019-04-21T10:33:48.405Z,1010.54
2019-04-21T10:34:47.828Z,1010.55
2019-04-21T10:35:48.835Z,1010.52
2019-04-21T10:36:48.981Z,1010.52
2019-04-21T10:38:01.239Z,1010.48
2019-04-21T10:38:51.547Z,1010.46
2019-04-21T10:39:47.647Z,1010.42
2019-04-21T10:40:47.627Z,1010.46
2019-04-21T10:41:47.772Z,1010.43
2019-04-21T10:42:48.094Z,1010.40
2019-04-21T10:43:47.418Z,1010.40
2019-04-21T10:44:47.373Z,1010.37
2019-04-21T10:45:48.692Z,1010.32
2019-04-21T10:46:49.997Z,1010.29
2019-04-21T10:47:47.310Z,1010.29
2019-04-21T10:48:48.484Z,1010.32
2019-04-21T10:49:47.149Z,1010.28
2019-04-21T10:50:47.302Z,1010.29
2019-04-21T10:51:47.079Z,1010.28
2019-04-21T10:52:47.013Z,1010.27
2019-04-21T10:53:50.441Z,1010.26
2019-04-21T10:55:08.313Z,1010.25
2019-04-21T10:56:01.586Z,1010.16
2019-04-21T10:56:47.902Z,1010.18
2019-04-21T10:57:46.782Z,1010.15
2019-04-21T10:58:46.758Z,1010.14
2019-04-21T10:59:50.443Z,1010.10
2019-04-21T11:00:48.303Z,1010.14
2019-04-21T11:01:47.129Z,1010.10
2019-04-21T11:02:46.568Z,1010.05
2019-04-21T11:03:46.743Z,1010.06
2019-04-21T11:04:46.976Z,1009.97
2019-04-21T11:05:46.419Z,1009.97
2019-04-21T11:06:46.525Z,1009.98
2019-04-21T11:07:55.331Z,1009.97
2019-04-21T11:08:50.300Z,1009.98
2019-04-21T11:09:46.378Z,1009.95
2019-04-21T11:10:47.581Z,1009.99
2019-04-21T11:11:48.190Z,1009.94
2019-04-21T11:12:47.588Z,1009.99
2019-04-21T11:13:46.411Z,1009.92
2019-04-21T11:14:47.153Z,1009.94
2019-04-21T11:15:47.365Z,1009.92
2019-04-21T11:16:47.581Z,1009.90
2019-04-21T11:17:47.300Z,1009.91
2019-04-21T11:18:46.070Z,1009.88
2019-04-21T11:19:46.518Z,1009.85
2019-04-21T11:20:46.630Z,1009.84
2019-04-21T11:21:46.979Z,1009.83
2019-04-21T11:22:45.661Z,1009.82
2019-04-21T11:23:45.875Z,1009.81
2019-04-21T11:24:46.922Z,1009.81
2019-04-21T11:25:46.213Z,1009.76
2019-04-21T11:26:45.585Z,1009.78
2019-04-21T11:27:46.758Z,1009.75
2019-04-21T11:28:45.388Z,1009.73
2019-04-21T11:29:45.349Z,1009.73
2019-04-21T11:30:46.606Z,1009.72
2019-04-21T11:31:45.331Z,1009.70
2019-04-21T11:32:47.601Z,1009.69
2019-04-21T11:33:45.313Z,1009.71
2019-04-21T11:34:45.385Z,1009.68
2019-04-21T11:35:45.506Z,1009.71
2019-04-21T11:36:45.930Z,1009.65
2019-04-21T11:37:46.143Z,1009.62
2019-04-21T11:39:05.593Z,1009.63
2019-04-21T11:39:52.200Z,1009.65
2019-04-21T11:40:45.616Z,1009.64
2019-04-21T11:41:45.757Z,1009.63
2019-04-21T11:42:45.992Z,1009.58
2019-04-21T11:43:45.347Z,1009.61
2019-04-21T11:44:45.033Z,1009.55
2019-04-21T11:45:44.792Z,1009.60
2019-04-21T11:46:44.633Z,1009.60
2019-04-21T11:47:45.895Z,1009.55
2019-04-21T11:48:44.470Z,1009.57
2019-04-21T11:49:45.257Z,1009.57
2019-04-21T11:50:44.377Z,1009.56
2019-04-21T11:51:44.992Z,1009.53
2019-04-21T11:52:45.158Z,1009.52
2019-04-21T11:53:44.242Z,1009.58
2019-04-21T11:54:44.639Z,1009.55
2019-04-21T11:55:47.003Z,1009.55
2019-04-21T11:56:45.143Z,1009.57
2019-04-21T11:57:46.962Z,1009.57
2019-04-21T11:58:44.046Z,1009.60
2019-04-21T11:59:43.973Z,1009.53
2019-04-21T12:00:45.278Z,1009.54
2019-04-21T12:01:43.887Z,1009.50
2019-04-21T12:02:43.865Z,1009.42
2019-04-21T12:03:43.792Z,1009.46
2019-04-21T12:04:43.750Z,1009.43
2019-04-21T12:05:43.701Z,1009.43
2019-04-21T12:06:47.131Z,1009.38
2019-04-21T12:07:43.634Z,1009.37
2019-04-21T12:08:47.623Z,1009.36
2019-04-21T12:09:43.780Z,1009.39
2019-04-21T12:10:43.476Z,1009.42
2019-04-21T12:11:43.428Z,1009.34
2019-04-21T12:12:43.406Z,1009.42
2019-04-21T12:13:43.342Z,1009.38
2019-04-21T12:14:43.928Z,1009.32
2019-04-21T12:15:43.248Z,1009.34
2019-04-21T12:16:43.372Z,1009.31
2019-04-21T12:17:43.974Z,1009.29
2019-04-21T12:18:43.115Z,1009.26
2019-04-21T12:19:43.063Z,1009.26
2019-04-21T12:20:43.148Z,1009.28
2019-04-21T12:21:53.475Z,1009.28
2019-04-21T12:22:43.325Z,1009.22
2019-04-21T12:23:42.974Z,1009.25
2019-04-21T12:24:43.037Z,1009.21
2019-04-21T12:25:42.973Z,1009.15
2019-04-21T12:26:42.742Z,1009.17
2019-04-21T12:27:43.869Z,1009.17
2019-04-21T12:28:43.771Z,1009.12
2019-04-21T12:29:43.946Z,1009.10
2019-04-21T12:30:42.565Z,1009.15
2019-04-21T12:31:43.473Z,1009.12
2019-04-21T12:32:42.495Z,1009.04
2019-04-21T12:33:43.491Z,1009.04
2019-04-21T12:34:43.691Z,1009.04
2019-04-21T12:35:42.340Z,1009.06
2019-04-21T12:36:43.691Z,1009.05
2019-04-21T12:37:42.776Z,1009.02
2019-04-21T12:38:48.888Z,1009.04
2019-04-21T12:39:43.060Z,1008.99
2019-04-21T12:40:42.334Z,1008.93
2019-04-21T12:41:42.629Z,1008.87
2019-04-21T12:42:42.411Z,1008.90
2019-04-21T12:43:42.542Z,1008.93
2019-04-21T12:44:43.322Z,1008.89
2019-04-21T12:45:42.049Z,1008.87
2019-04-21T12:46:41.847Z,1008.87
2019-04-21T12:47:41.933Z,1008.80
2019-04-21T12:48:42.087Z,1008.79
2019-04-21T12:49:41.711Z,1008.81
2019-04-21T12:50:41.783Z,1008.75
2019-04-21T12:51:41.871Z,1008.73
2019-04-21T12:52:41.954Z,1008.73
2019-04-21T12:53:41.705Z,1008.71
2019-04-21T12:54:41.786Z,1008.72
2019-04-21T12:55:44.822Z,1008.67
2019-04-21T12:56:41.406Z,1008.67
2019-04-21T12:57:41.597Z,1008.66
2019-04-21T12:58:41.667Z,1008.63
2019-04-21T12:59:42.544Z,1008.59
2019-04-21T13:00:41.207Z,1008.54
2019-04-21T13:01:41.290Z,1008.52
2019-04-21T13:02:41.117Z,1008.52
2019-04-21T13:03:41.808Z,1008.47
2019-04-21T13:04:42.004Z,1008.47
2019-04-21T13:05:40.982Z,1008.49
2019-04-21T13:06:41.512Z,1008.46
2019-04-21T13:07:41.510Z,1008.44
2019-04-21T13:08:53.004Z,1008.41
2019-04-21T13:09:41.981Z,1008.39
2019-04-21T13:10:42.176Z,1008.34
2019-04-21T13:11:41.375Z,1008.36
2019-04-21T13:12:41.703Z,1008.32
2019-04-21T13:13:41.916Z,1008.32
2019-04-21T13:14:42.001Z,1008.33
2019-04-21T13:15:40.530Z,1008.28
2019-04-21T13:16:41.270Z,1008.31
2019-04-21T13:17:43.704Z,1008.31
2019-04-21T13:18:41.560Z,1008.27
2019-04-21T13:19:41.217Z,1008.21
2019-04-21T13:20:40.444Z,1008.21